Time;durP1;ratioP1;P1;durP2;ratioP2;P2;SDS_P1;SDS_P2;PMS_P1;PMS_P2;Temp;Humidity;BMP_temperature;BMP_pressure;BME280_temperature;BME280_humidity;BME280_pressure;Samples;Min_cycle;Max_cycle;Signal;HPM_P1;HPM_P2
2021/11/11 00:00:26;;;;;;;38.43;23.67;;;;;;;;;;5036757;28;20437;-65
2021/11/11 00:02:55;;;;;;;37.13;23.20;;;;;;;;;;5036409;28;20973;-65
2021/11/11 00:05:21;;;;;;;33.37;23.60;;;;;;;;;;5036841;28;20461;-66
2021/11/11 00:07:48;;;;;;;31.70;23.73;;;;;;;;;;5053780;28;20467;-65
2021/11/11 00:10:14;;;;;;;31.60;24.43;;;;;;;;;;5056395;28;20909;-65
2021/11/11 00:12:41;;;;;;;29.23;22.53;;;;;;;;;;5056335;28;20907;-66
2021/11/11 00:15:08;;;;;;;32.03;22.73;;;;;;;;;;5056568;28;20777;-66
2021/11/11 00:17:35;;;;;;;29.00;22.73;;;;;;;;;;5056221;28;20468;-65
2021/11/11 00:20:01;;;;;;;31.47;21.87;;;;;;;;;;5055997;28;20406;-65
2021/11/11 00:22:27;;;;;;;31.63;22.93;;;;;;;;;;5043771;28;20450;-66
2021/11/11 00:24:53;;;;;;;30.33;22.73;;;;;;;;;;5036183;28;20493;-65
2021/11/11 00:27:19;;;;;;;32.10;20.90;;;;;;;;;;5036144;28;20409;-66
2021/11/11 00:29:45;;;;;;;32.37;21.30;;;;;;;;;;5036379;28;20481;-66
2021/11/11 00:32:12;;;;;;;29.57;22.33;;;;;;;;;;5050653;28;20509;-65
2021/11/11 00:34:38;;;;;;;33.83;20.70;;;;;;;;;;5056060;28;20394;-66
2021/11/11 00:37:04;;;;;;;28.07;20.60;;;;;;;;;;5055749;28;20414;-66
2021/11/11 00:39:30;;;;;;;26.17;21.47;;;;;;;;;;5055818;28;20434;-66
2021/11/11 00:41:56;;;;;;;32.23;21.57;;;;;;;;;;5055682;28;20425;-66
2021/11/11 00:44:22;;;;;;;34.07;20.57;;;;;;;;;;5055653;28;20393;-66
2021/11/11 00:46:48;;;;;;;30.97;20.17;;;;;;;;;;5056043;28;20456;-65
2021/11/11 00:49:14;;;;;;;28.23;19.10;;;;;;;;;;5055579;28;20425;-66
2021/11/11 00:51:41;;;;;;;26.10;19.73;;;;;;;;;;5055562;28;20415;-66
2021/11/11 00:54:07;;;;;;;29.80;20.60;;;;;;;;;;5055708;28;20803;-66
2021/11/11 00:56:34;;;;;;;23.30;17.43;;;;;;;;;;5055477;28;20402;-66
2021/11/11 00:59:00;;;;;;;27.73;18.63;;;;;;;;;;5047130;28;20449;-66
2021/11/11 01:01:30;;;;;;;34.10;20.40;;;;;;;;;;5055560;28;20449;-66
2021/11/11 01:03:57;;;;;;;28.13;20.37;;;;;;;;;;5055732;28;20806;-66
2021/11/11 01:06:23;;;;;;;27.30;18.57;;;;;;;;;;5055299;28;20442;-66
2021/11/11 01:08:50;;;;;;;25.83;17.57;;;;;;;;;;5055246;28;20902;-66
2021/11/11 01:11:16;;;;;;;25.60;15.93;;;;;;;;;;5055493;28;20782;-65
2021/11/11 01:13:42;;;;;;;22.73;15.60;;;;;;;;;;5055261;28;20740;-65
2021/11/11 01:16:08;;;;;;;19.83;14.90;;;;;;;;;;5055273;28;20406;-65
2021/11/11 01:18:34;;;;;;;25.93;16.40;;;;;;;;;;5055307;28;20772;-64
2021/11/11 01:21:00;;;;;;;22.53;15.77;;;;;;;;;;5055321;28;20487;-64
2021/11/11 01:23:26;;;;;;;23.70;17.07;;;;;;;;;;5055449;28;20425;-64
2021/11/11 01:25:52;;;;;;;26.90;16.77;;;;;;;;;;5055038;28;20788;-65
2021/11/11 01:28:18;;;;;;;20.37;14.73;;;;;;;;;;5054915;28;20881;-66
2021/11/11 01:30:45;;;;;;;29.03;15.77;;;;;;;;;;5054818;28;20482;-66
2021/11/11 01:33:12;;;;;;;26.50;18.50;;;;;;;;;;5055073;28;20428;-65
2021/11/11 01:35:39;;;;;;;23.90;18.03;;;;;;;;;;5055075;28;20410;-64
2021/11/11 01:38:05;;;;;;;29.40;20.30;;;;;;;;;;5055053;28;20410;-64
2021/11/11 01:40:32;;;;;;;28.40;18.87;;;;;;;;;;5054838;28;20429;-64
2021/11/11 01:43:00;;;;;;;20.77;16.60;;;;;;;;;;5054793;28;20421;-65
2021/11/11 01:45:27;;;;;;;28.03;20.03;;;;;;;;;;5053168;28;20464;-65
2021/11/11 01:47:54;;;;;;;26.37;18.60;;;;;;;;;;5054410;28;20410;-65
2021/11/11 01:50:21;;;;;;;29.60;18.80;;;;;;;;;;5043864;28;20419;-64
2021/11/11 01:52:48;;;;;;;27.40;18.43;;;;;;;;;;5034490;28;20422;-64
2021/11/11 01:55:14;;;;;;;22.63;17.63;;;;;;;;;;5034453;28;20403;-65
2021/11/11 01:57:40;;;;;;;18.43;15.10;;;;;;;;;;5050710;28;20437;-64
2021/11/11 02:00:13;;;;;;;21.47;16.47;;;;;;;;;;5054248;28;20426;-65
2021/11/11 02:02:39;;;;;;;22.67;15.83;;;;;;;;;;5054524;28;20417;-65
2021/11/11 02:05:05;;;;;;;21.63;16.27;;;;;;;;;;5053944;28;20406;-65
2021/11/11 02:07:31;;;;;;;23.20;15.83;;;;;;;;;;5054240;28;20474;-65
2021/11/11 02:09:57;;;;;;;17.20;14.37;;;;;;;;;;5053498;28;20520;-65
2021/11/11 02:12:24;;;;;;;21.73;15.33;;;;;;;;;;5045798;28;20442;-65
2021/11/11 02:14:50;;;;;;;20.30;15.60;;;;;;;;;;5042143;28;20430;-65
2021/11/11 02:17:24;;;;;;;29.10;16.03;;;;;;;;;;5033901;28;20970;-65
2021/11/11 02:20:08;;;;;;;18.60;15.70;;;;;;;;;;5036804;28;20414;-65
2021/11/11 02:22:34;;;;;;;22.87;15.00;;;;;;;;;;5052236;28;20468;-65
2021/11/11 02:25:00;;;;;;;21.30;15.63;;;;;;;;;;5054086;28;20823;-66
2021/11/11 02:27:26;;;;;;;22.60;15.87;;;;;;;;;;5053788;28;20501;-65
2021/11/11 02:29:52;;;;;;;19.97;15.33;;;;;;;;;;5053747;28;20433;-64
2021/11/11 02:32:19;;;;;;;22.17;13.83;;;;;;;;;;5053521;28;20425;-65
2021/11/11 02:34:45;;;;;;;21.17;14.30;;;;;;;;;;5053539;28;20394;-65
2021/11/11 02:37:11;;;;;;;17.10;13.70;;;;;;;;;;5053806;28;20470;-65
2021/11/11 02:39:39;;;;;;;19.57;13.37;;;;;;;;;;5053993;28;20910;-66
2021/11/11 02:42:05;;;;;;;16.03;12.13;;;;;;;;;;5052132;28;20452;-65
2021/11/11 02:44:32;;;;;;;18.67;13.20;;;;;;;;;;5053830;28;20812;-65
2021/11/11 02:46:58;;;;;;;17.93;13.43;;;;;;;;;;5053493;28;20457;-65
2021/11/11 02:49:33;;;;;;;19.50;13.70;;;;;;;;;;5053481;28;20420;-65
2021/11/11 02:51:59;;;;;;;20.03;15.13;;;;;;;;;;5039227;28;20817;-65
2021/11/11 02:54:25;;;;;;;23.63;15.53;;;;;;;;;;5033809;28;20406;-65
2021/11/11 02:56:51;;;;;;;24.57;15.20;;;;;;;;;;5041502;28;20415;-66
2021/11/11 02:59:17;;;;;;;24.80;17.13;;;;;;;;;;5033669;28;20792;-65
2021/11/11 03:01:43;;;;;;;31.07;18.10;;;;;;;;;;5047995;28;20877;-65
2021/11/11 03:04:10;;;;;;;24.33;15.60;;;;;;;;;;5053567;28;20827;-65
2021/11/11 03:06:39;;;;;;;25.53;15.30;;;;;;;;;;5052967;28;20464;-65
2021/11/11 03:09:05;;;;;;;25.27;15.67;;;;;;;;;;5053321;28;20402;-65
2021/11/11 03:11:31;;;;;;;26.10;17.20;;;;;;;;;;5052971;28;20434;-65
2021/11/11 03:13:57;;;;;;;23.23;15.23;;;;;;;;;;5053246;28;20537;-65
2021/11/11 03:16:24;;;;;;;19.00;15.17;;;;;;;;;;5052140;28;20406;-65
2021/11/11 03:18:51;;;;;;;22.80;15.80;;;;;;;;;;5053241;28;20436;-65
2021/11/11 03:21:17;;;;;;;21.87;16.30;;;;;;;;;;5052097;28;20414;-65
2021/11/11 03:23:43;;;;;;;24.73;14.70;;;;;;;;;;5053061;28;20456;-65
2021/11/11 03:26:09;;;;;;;22.73;15.27;;;;;;;;;;5052600;28;20525;-65
2021/11/11 03:28:35;;;;;;;21.07;15.00;;;;;;;;;;5046041;28;20903;-65
2021/11/11 03:31:01;;;;;;;19.50;14.70;;;;;;;;;;5033216;28;20929;-65
2021/11/11 03:33:27;;;;;;;22.10;15.53;;;;;;;;;;5032938;28;20910;-65
2021/11/11 03:35:53;;;;;;;20.57;14.63;;;;;;;;;;5032931;28;20966;-65
2021/11/11 03:38:19;;;;;;;21.47;13.90;;;;;;;;;;5036985;28;20414;-65
2021/11/11 03:40:46;;;;;;;20.03;14.10;;;;;;;;;;5052935;28;20413;-65
2021/11/11 03:43:13;;;;;;;21.43;14.73;;;;;;;;;;5050779;28;20844;-64
2021/11/11 03:45:39;;;;;;;19.90;14.50;;;;;;;;;;5041282;28;20488;-64
2021/11/11 03:48:06;;;;;;;16.73;13.67;;;;;;;;;;5052532;28;20425;-64
2021/11/11 03:50:32;;;;;;;20.60;14.20;;;;;;;;;;5051323;28;20433;-64
2021/11/11 03:52:58;;;;;;;22.40;15.43;;;;;;;;;;5052674;28;20948;-64
2021/11/11 03:55:25;;;;;;;22.90;14.77;;;;;;;;;;5052520;28;20406;-65
2021/11/11 03:57:53;;;;;;;19.70;15.13;;;;;;;;;;5044160;28;20930;-66
2021/11/11 04:00:20;;;;;;;23.83;15.77;;;;;;;;;;5052701;28;20405;-65
2021/11/11 04:02:47;;;;;;;21.57;14.50;;;;;;;;;;5052785;28;20425;-66
2021/11/11 04:05:14;;;;;;;19.13;14.30;;;;;;;;;;5052787;28;20406;-66
2021/11/11 04:07:40;;;;;;;17.20;14.53;;;;;;;;;;5052580;28;20405;-66
2021/11/11 04:10:06;;;;;;;20.10;14.57;;;;;;;;;;5040001;28;20499;-65
2021/11/11 04:12:32;;;;;;;21.50;15.07;;;;;;;;;;5032485;28;20458;-66
2021/11/11 04:14:58;;;;;;;14.97;13.23;;;;;;;;;;5032628;28;20410;-66
2021/11/11 04:17:24;;;;;;;19.70;14.40;;;;;;;;;;5032841;28;20462;-65
2021/11/11 04:19:50;;;;;;;18.73;14.00;;;;;;;;;;5046293;28;20457;-66
2021/11/11 04:22:16;;;;;;;15.30;12.53;;;;;;;;;;5052390;28;21008;-66
2021/11/11 04:24:44;;;;;;;18.83;14.43;;;;;;;;;;5052683;28;20941;-66
2021/11/11 04:27:20;;;;;;;22.13;15.77;;;;;;;;;;5052227;28;20450;-66
2021/11/11 04:30:00;;;;;;;18.23;14.37;;;;;;;;;;5051858;28;20421;-65
2021/11/11 04:32:26;;;;;;;21.13;14.90;;;;;;;;;;5033715;28;20432;-66
2021/11/11 04:34:57;;;;;;;21.10;16.40;;;;;;;;;;5036180;28;20402;-66
2021/11/11 04:37:35;;;;;;;20.77;14.47;;;;;;;;;;5053726;28;20474;-65
2021/11/11 04:45:53;;;;;;;20.13;14.33;;;;;;;;;;5056048;28;20860;-66
2021/11/11 05:01:43;;;;;;;20.70;15.03;;;;;;;;;;5050633;28;20472;-66
2021/11/11 05:04:09;;;;;;;17.37;13.00;;;;;;;;;;5057063;28;20771;-66
2021/11/11 05:06:35;;;;;;;19.40;13.17;;;;;;;;;;5055563;28;20464;-65
2021/11/11 05:09:02;;;;;;;24.43;15.43;;;;;;;;;;5055654;28;20398;-65
2021/11/11 05:11:28;;;;;;;23.03;14.67;;;;;;;;;;5035695;28;20476;-66
2021/11/11 05:13:54;;;;;;;20.53;14.00;;;;;;;;;;5035481;28;20457;-65
2021/11/11 05:16:20;;;;;;;21.43;15.53;;;;;;;;;;5035632;28;20394;-66
2021/11/11 05:18:46;;;;;;;20.23;13.10;;;;;;;;;;5035459;28;20399;-65
2021/11/11 05:21:12;;;;;;;16.73;13.93;;;;;;;;;;5050625;28;20434;-65
2021/11/11 05:23:38;;;;;;;18.43;13.00;;;;;;;;;;5056097;28;20406;-64
2021/11/11 05:26:04;;;;;;;21.30;13.53;;;;;;;;;;5055098;28;20480;-65
2021/11/11 05:28:31;;;;;;;17.87;12.83;;;;;;;;;;5055024;28;20436;-66
2021/11/11 05:30:57;;;;;;;16.63;13.10;;;;;;;;;;5054792;28;20902;-65
2021/11/11 05:33:23;;;;;;;19.57;12.80;;;;;;;;;;5042475;28;20461;-65
2021/11/11 05:35:50;;;;;;;15.93;12.33;;;;;;;;;;5054845;28;20459;-66
2021/11/11 05:38:16;;;;;;;18.17;12.23;;;;;;;;;;5054795;28;20402;-65
2021/11/11 05:40:42;;;;;;;18.10;12.67;;;;;;;;;;5054804;28;20410;-66
2021/11/11 05:43:08;;;;;;;18.33;12.07;;;;;;;;;;5054348;28;20437;-65
2021/11/11 05:45:34;;;;;;;16.23;11.87;;;;;;;;;;5054480;28;20949;-65
2021/11/11 05:48:00;;;;;;;20.23;14.27;;;;;;;;;;5053442;28;20422;-65
2021/11/11 05:50:27;;;;;;;16.30;12.27;;;;;;;;;;5054433;28;20499;-65
2021/11/11 05:52:53;;;;;;;15.60;11.87;;;;;;;;;;5040098;28;20511;-65
2021/11/11 05:55:20;;;;;;;17.33;12.73;;;;;;;;;;5038966;28;20418;-65
2021/11/11 05:57:46;;;;;;;25.77;13.80;;;;;;;;;;5054367;28;20899;-65
2021/11/11 06:00:14;;;;;;;23.17;15.67;;;;;;;;;;5054740;28;20410;-65
2021/11/11 06:02:43;;;;;;;20.80;14.73;;;;;;;;;;5054449;28;20499;-65
2021/11/11 06:05:09;;;;;;;15.13;11.87;;;;;;;;;;5054721;28;20418;-65
2021/11/11 06:07:35;;;;;;;15.10;11.60;;;;;;;;;;5054241;28;20406;-66
2021/11/11 06:10:01;;;;;;;18.60;12.93;;;;;;;;;;5054301;28;20405;-65
2021/11/11 06:12:27;;;;;;;13.50;10.30;;;;;;;;;;5054491;28;20425;-65
2021/11/11 06:14:53;;;;;;;16.53;11.20;;;;;;;;;;5054540;28;20479;-66
2021/11/11 06:17:19;;;;;;;13.87;10.60;;;;;;;;;;5053975;28;20414;-65
2021/11/11 06:19:48;;;;;;;13.83;10.37;;;;;;;;;;5053868;28;20799;-65
2021/11/11 06:22:14;;;;;;;14.43;10.23;;;;;;;;;;5053794;28;20453;-65
2021/11/11 06:24:41;;;;;;;15.90;11.90;;;;;;;;;;5052437;28;20492;-66
2021/11/11 06:27:07;;;;;;;13.50;10.60;;;;;;;;;;5051786;28;20503;-70
2021/11/11 06:29:33;;;;;;;15.80;12.43;;;;;;;;;;5034791;28;20419;-66
2021/11/11 06:31:59;;;;;;;15.93;10.97;;;;;;;;;;5039140;28;20458;-66
2021/11/11 06:34:25;;;;;;;18.23;11.93;;;;;;;;;;5033701;28;20452;-66
2021/11/11 06:36:51;;;;;;;14.87;10.70;;;;;;;;;;5034682;28;20430;-66
2021/11/11 06:39:17;;;;;;;15.10;10.30;;;;;;;;;;5048435;28;20924;-67
2021/11/11 06:41:43;;;;;;;15.03;10.60;;;;;;;;;;5053340;28;20469;-66
2021/11/11 06:44:10;;;;;;;16.07;11.17;;;;;;;;;;5053679;28;20410;-66
2021/11/11 06:46:36;;;;;;;20.80;12.77;;;;;;;;;;5053189;28;20445;-66
2021/11/11 06:49:03;;;;;;;21.13;10.70;;;;;;;;;;5053813;28;20410;-66
2021/11/11 06:51:29;;;;;;;16.70;11.10;;;;;;;;;;5053688;28;20824;-67
2021/11/11 06:53:55;;;;;;;16.23;10.83;;;;;;;;;;5053745;28;20766;-65
2021/11/11 06:56:22;;;;;;;14.03;10.43;;;;;;;;;;5034868;28;20449;-67
2021/11/11 06:58:48;;;;;;;12.03;9.73;;;;;;;;;;5052523;28;20429;-66
2021/11/11 07:01:15;;;;;;;15.90;9.73;;;;;;;;;;5051937;28;20504;-66
2021/11/11 07:03:41;;;;;;;13.60;9.83;;;;;;;;;;5053468;28;20418;-66
2021/11/11 07:06:07;;;;;;;12.10;9.80;;;;;;;;;;5053194;28;20457;-65
2021/11/11 07:08:33;;;;;;;15.10;11.10;;;;;;;;;;5053327;28;20405;-66
2021/11/11 07:10:59;;;;;;;14.47;10.53;;;;;;;;;;5053413;28;20394;-66
2021/11/11 07:13:25;;;;;;;15.63;10.67;;;;;;;;;;5053153;28;20512;-67
2021/11/11 07:15:51;;;;;;;12.43;9.50;;;;;;;;;;5053374;28;20746;-65
2021/11/11 07:18:18;;;;;;;17.70;12.40;;;;;;;;;;5052921;28;20410;-66
2021/11/11 07:20:46;;;;;;;17.30;9.93;;;;;;;;;;5034862;28;20426;-65
2021/11/11 07:23:14;;;;;;;12.10;10.30;;;;;;;;;;5032775;28;20836;-66
2021/11/11 07:25:40;;;;;;;14.37;10.17;;;;;;;;;;5033403;28;20455;-66
2021/11/11 07:28:06;;;;;;;15.30;10.50;;;;;;;;;;5033866;28;20398;-66
2021/11/11 07:30:33;;;;;;;15.90;10.83;;;;;;;;;;5052524;28;20398;-66
2021/11/11 07:32:59;;;;;;;13.93;10.07;;;;;;;;;;5040677;28;20465;-66
2021/11/11 07:35:25;;;;;;;22.10;11.83;;;;;;;;;;5035165;28;20434;-66
2021/11/11 07:37:53;;;;;;;18.60;11.80;;;;;;;;;;5051563;28;20455;-59
2021/11/11 07:40:20;;;;;;;14.90;10.73;;;;;;;;;;5047941;28;20918;-60
2021/11/11 07:42:47;;;;;;;13.40;10.47;;;;;;;;;;5050970;28;20927;-59
2021/11/11 07:45:16;;;;;;;15.17;9.57;;;;;;;;;;5048303;28;20525;-61
2021/11/11 07:47:42;;;;;;;13.07;9.53;;;;;;;;;;5047928;28;20422;-66
2021/11/11 07:50:09;;;;;;;13.70;10.37;;;;;;;;;;5052153;28;20503;-65
2021/11/11 07:52:36;;;;;;;13.33;10.70;;;;;;;;;;5050993;28;20498;-65
2021/11/11 07:55:02;;;;;;;14.97;10.40;;;;;;;;;;5051747;28;20421;-67
2021/11/11 07:57:29;;;;;;;13.80;10.57;;;;;;;;;;5050537;28;20418;-65
2021/11/11 07:59:55;;;;;;;14.80;10.87;;;;;;;;;;5051112;28;20456;-66
2021/11/11 08:02:22;;;;;;;16.33;11.17;;;;;;;;;;5046544;28;20449;-65
2021/11/11 08:04:48;;;;;;;23.37;11.03;;;;;;;;;;5046028;28;20430;-72
2021/11/11 08:07:17;;;;;;;12.80;8.43;;;;;;;;;;5047639;28;20461;-60
2021/11/11 08:09:44;;;;;;;11.10;9.07;;;;;;;;;;5049057;28;20937;-60
2021/11/11 08:12:10;;;;;;;15.60;11.23;;;;;;;;;;5043442;28;20452;-68
2021/11/11 08:14:36;;;;;;;11.30;9.37;;;;;;;;;;5045615;28;20788;-67
2021/11/11 08:17:02;;;;;;;17.27;9.03;;;;;;;;;;5045828;28;20425;-67
2021/11/11 08:19:29;;;;;;;23.50;9.63;;;;;;;;;;5050009;28;20413;-67
2021/11/11 08:21:55;;;;;;;11.33;9.93;;;;;;;;;;5046644;28;20496;-67
2021/11/11 08:24:21;;;;;;;14.57;10.00;;;;;;;;;;5062494;28;20803;-61
2021/11/11 08:26:47;;;;;;;16.50;10.00;;;;;;;;;;5047409;28;20244;-67
2021/11/11 08:29:13;;;;;;;16.80;10.83;;;;;;;;;;5052561;28;20519;-67
2021/11/11 08:31:39;;;;;;;12.90;8.60;;;;;;;;;;5048152;28;20444;-65
2021/11/11 08:34:05;;;;;;;12.83;9.63;;;;;;;;;;5042377;28;20516;-61
2021/11/11 08:36:31;;;;;;;19.43;10.43;;;;;;;;;;5055764;28;20417;-60
2021/11/11 08:38:58;;;;;;;16.17;10.83;;;;;;;;;;5053207;28;20926;-67
2021/11/11 08:41:25;;;;;;;12.37;8.93;;;;;;;;;;5050407;28;20950;-65
2021/11/11 08:43:51;;;;;;;14.00;9.67;;;;;;;;;;5048378;28;20437;-67
2021/11/11 08:46:18;;;;;;;14.13;9.67;;;;;;;;;;5048580;28;20449;-67
2021/11/11 08:48:44;;;;;;;14.53;9.50;;;;;;;;;;5050922;28;20413;-69
2021/11/11 08:51:10;;;;;;;15.03;10.70;;;;;;;;;;5045939;28;20417;-67
2021/11/11 08:53:36;;;;;;;11.80;9.73;;;;;;;;;;5048995;28;20414;-68
2021/11/11 08:56:02;;;;;;;16.10;10.07;;;;;;;;;;5049669;28;20426;-68
2021/11/11 08:58:30;;;;;;;12.47;10.30;;;;;;;;;;5054336;28;20508;-68
2021/11/11 09:00:56;;;;;;;14.20;10.77;;;;;;;;;;5041450;28;20425;-68
2021/11/11 09:03:22;;;;;;;14.43;9.80;;;;;;;;;;5048749;28;20437;-65
2021/11/11 09:05:49;;;;;;;14.20;10.70;;;;;;;;;;5044697;28;20506;-68
2021/11/11 09:08:15;;;;;;;13.67;11.40;;;;;;;;;;5048861;28;20418;-68
2021/11/11 09:10:43;;;;;;;14.00;10.87;;;;;;;;;;5054206;28;20416;-67
2021/11/11 09:13:10;;;;;;;16.13;11.73;;;;;;;;;;5045944;28;20955;-68
2021/11/11 09:15:36;;;;;;;16.77;11.30;;;;;;;;;;5047357;28;20418;-67
2021/11/11 09:18:04;;;;;;;11.07;9.87;;;;;;;;;;5051757;28;20403;-66
2021/11/11 09:20:31;;;;;;;13.93;11.30;;;;;;;;;;5051398;28;20427;-56
2021/11/11 09:22:59;;;;;;;24.97;18.03;;;;;;;;;;5056857;28;20525;-62
2021/11/11 09:25:27;;;;;;;14.93;10.70;;;;;;;;;;5054514;28;20476;-60
2021/11/11 09:27:54;;;;;;;15.53;11.80;;;;;;;;;;5055633;28;20520;-60
2021/11/11 09:30:21;;;;;;;14.93;11.20;;;;;;;;;;5053083;28;20460;-67
2021/11/11 09:32:48;;;;;;;14.80;11.80;;;;;;;;;;5076812;28;20488;-68
2021/11/11 09:35:14;;;;;;;15.47;12.07;;;;;;;;;;5059457;28;20428;-67
2021/11/11 09:37:41;;;;;;;16.73;11.73;;;;;;;;;;5052594;28;20425;-61
2021/11/11 09:40:09;;;;;;;17.50;12.07;;;;;;;;;;5055155;28;20408;-68
2021/11/11 09:42:36;;;;;;;15.53;12.40;;;;;;;;;;5064847;28;20426;-68
2021/11/11 09:45:03;;;;;;;15.23;11.63;;;;;;;;;;5058792;28;20409;-65
2021/11/11 09:47:29;;;;;;;16.27;13.30;;;;;;;;;;5061519;28;20469;-66
2021/11/11 09:49:56;;;;;;;17.87;13.50;;;;;;;;;;5065257;28;20449;-69
2021/11/11 09:52:23;;;;;;;15.10;12.67;;;;;;;;;;5062520;28;20474;-69
2021/11/11 10:00:18;;;;;;;13.30;11.10;;;;;;;;;;5062646;28;20428;-66
2021/11/11 10:02:44;;;;;;;16.70;12.75;;;;;;;;;;5058528;28;20425;-60
2021/11/11 10:05:10;;;;;;;17.63;12.50;;;;;;;;;;5054515;28;20433;-59
2021/11/11 10:07:36;;;;;;;16.17;12.07;;;;;;;;;;5064900;28;20176;-60
2021/11/11 10:10:03;;;;;;;14.90;12.53;;;;;;;;;;5063444;28;20481;-70
2021/11/11 10:12:32;;;;;;;14.97;12.00;;;;;;;;;;5058846;28;20993;-69
2021/11/11 10:15:11;;;;;;;22.00;12.37;;;;;;;;;;5059236;28;20504;-69
2021/11/11 10:17:41;;;;;;;20.30;13.00;;;;;;;;;;5049354;28;20973;-60
2021/11/11 10:20:09;;;;;;;17.50;12.70;;;;;;;;;;5056770;28;20421;-61
2021/11/11 10:22:36;;;;;;;17.07;12.20;;;;;;;;;;5052582;28;20452;-59
2021/11/11 10:25:06;;;;;;;15.47;11.30;;;;;;;;;;5051597;28;20472;-68
2021/11/11 10:27:44;;;;;;;15.27;12.03;;;;;;;;;;5038957;28;20977;-65
2021/11/11 10:30:12;;;;;;;15.32;12.60;;;;;;;;;;5048223;28;20423;-61
2021/11/11 10:32:41;;;;;;;16.80;12.20;;;;;;;;;;5050720;28;20671;-59
2021/11/11 10:35:07;;;;;;;16.80;12.67;;;;;;;;;;5045602;28;20504;-60
2021/11/11 10:37:34;;;;;;;15.90;12.67;;;;;;;;;;5052689;28;20414;-60
2021/11/11 10:40:06;;;;;;;21.10;11.50;;;;;;;;;;5047958;28;20440;-56
2021/11/11 10:42:33;;;;;;;14.00;12.00;;;;;;;;;;5049881;28;20437;-56
2021/11/11 10:44:59;;;;;;;19.53;13.50;;;;;;;;;;5044758;28;20418;-59
2021/11/11 10:47:30;;;;;;;15.20;11.97;;;;;;;;;;5041597;28;20453;-64
2021/11/11 10:49:57;;;;;;;15.17;10.97;;;;;;;;;;5050061;28;20434;-65
2021/11/11 10:52:26;;;;;;;15.77;12.40;;;;;;;;;;5045338;28;20949;-65
2021/11/11 10:55:15;;;;;;;14.40;12.90;;;;;;;;;;5044942;28;20410;-60
2021/11/11 10:57:47;;;;;;;15.77;12.67;;;;;;;;;;5043032;28;20430;-62
2021/11/11 11:00:22;;;;;;;13.47;11.30;;;;;;;;;;5049938;28;20412;-63
2021/11/11 11:02:50;;;;;;;14.73;11.83;;;;;;;;;;5047528;28;20961;-63
2021/11/11 11:05:16;;;;;;;22.63;11.53;;;;;;;;;;5047539;28;20433;-63
2021/11/11 11:07:44;;;;;;;13.53;10.70;;;;;;;;;;5045351;28;20410;-61
2021/11/11 11:10:12;;;;;;;16.50;11.50;;;;;;;;;;5049848;28;20479;-57
2021/11/11 11:12:38;;;;;;;18.33;11.80;;;;;;;;;;5049250;28;20429;-61
2021/11/11 11:15:04;;;;;;;15.67;11.90;;;;;;;;;;5051804;28;20413;-57
2021/11/11 11:17:30;;;;;;;14.70;12.47;;;;;;;;;;5049977;28;20418;-59
2021/11/11 11:20:15;;;;;;;16.57;13.10;;;;;;;;;;5049861;28;20413;-61
2021/11/11 11:22:42;;;;;;;16.13;12.80;;;;;;;;;;5050366;28;20452;-63
2021/11/11 11:25:08;;;;;;;18.13;12.00;;;;;;;;;;5049329;28;20417;-57
2021/11/11 11:27:36;;;;;;;18.00;11.23;;;;;;;;;;5050287;28;20506;-61
2021/11/11 11:30:15;;;;;;;15.87;11.77;;;;;;;;;;5046981;28;20449;-62
2021/11/11 11:32:43;;;;;;;19.03;12.43;;;;;;;;;;5040231;28;20429;-59
2021/11/11 11:35:11;;;;;;;14.97;11.13;;;;;;;;;;5040501;28;20471;-60
2021/11/11 11:37:37;;;;;;;20.03;12.07;;;;;;;;;;5040080;28;20422;-64
2021/11/11 11:40:06;;;;;;;15.33;11.20;;;;;;;;;;5047441;28;20426;-61
2021/11/11 11:42:54;;;;;;;16.70;11.80;;;;;;;;;;5049755;28;20496;-65
2021/11/11 11:45:23;;;;;;;13.80;10.80;;;;;;;;;;5041582;28;20504;-66
2021/11/11 11:47:53;;;;;;;13.70;11.33;;;;;;;;;;5041158;28;20461;-65
2021/11/11 11:50:22;;;;;;;16.95;11.70;;;;;;;;;;5038745;28;20423;-65
2021/11/11 11:52:52;;;;;;;14.40;11.70;;;;;;;;;;5041221;28;20579;-64
2021/11/11 11:58:09;;;;;;;20.87;12.37;;;;;;;;;;5035674;28;20391;-65
2021/11/11 12:06:20;;;;;;;21.53;12.40;;;;;;;;;;5048031;28;20495;-65
2021/11/11 12:13:54;;;;;;;16.33;12.60;;;;;;;;;;5042662;28;20512;-65
2021/11/11 12:38:57;;;;;;;17.60;14.70;;;;;;;;;;4995483;28;20432;-63
2021/11/11 12:41:23;;;;;;;18.53;15.40;;;;;;;;;;5036028;28;20887;-63
2021/11/11 12:44:07;;;;;;;17.77;14.40;;;;;;;;;;5050300;28;20444;-62
2021/11/11 12:46:38;;;;;;;20.20;16.20;;;;;;;;;;5047308;28;20449;-71
2021/11/11 12:49:26;;;;;;;19.30;15.20;;;;;;;;;;5047501;28;20492;-72
2021/11/11 12:52:11;;;;;;;17.50;15.10;;;;;;;;;;5049688;28;20433;-68
2021/11/11 12:54:37;;;;;;;22.90;15.37;;;;;;;;;;5067364;28;20428;-69
2021/11/11 12:57:04;;;;;;;23.50;15.77;;;;;;;;;;5053070;28;20443;-69
2021/11/11 12:59:32;;;;;;;20.20;15.70;;;;;;;;;;5042372;28;20437;-76
2021/11/11 13:02:05;;;;;;;22.48;16.02;;;;;;;;;;5040811;28;20439;-71
2021/11/11 13:04:43;;;;;;;27.20;15.80;;;;;;;;;;5054221;28;20244;-71
2021/11/11 13:07:21;;;;;;;20.43;15.93;;;;;;;;;;5051123;28;20452;-69
2021/11/11 13:09:58;;;;;;;20.10;16.93;;;;;;;;;;5053081;28;20460;-68
2021/11/11 13:12:25;;;;;;;20.73;14.87;;;;;;;;;;5052455;28;20895;-68
2021/11/11 13:14:57;;;;;;;19.63;15.10;;;;;;;;;;5055605;28;20552;-68
2021/11/11 13:17:26;;;;;;;24.87;16.57;;;;;;;;;;5051017;28;20918;-69
2021/11/11 13:20:00;;;;;;;31.83;17.90;;;;;;;;;;5053890;28;20409;-69
2021/11/11 13:22:40;;;;;;;22.90;17.40;;;;;;;;;;5048813;28;20496;-68
2021/11/11 13:25:21;;;;;;;21.37;15.67;;;;;;;;;;5041021;28;20461;-69
2021/11/11 15:18:20;;;;;;;27.13;18.60;;;;;;;;;;5052338;28;20417;-67
2021/11/11 15:44:58;;;;;;;36.40;18.97;;;;;;;;;;5056506;28;20487;-69
2021/11/11 16:21:05;;;;;;;26.17;20.73;;;;;;;;;;5036420;28;20505;-66
2021/11/11 16:26:11;;;;;;;31.20;22.17;;;;;;;;;;5036509;28;20461;-70
2021/11/11 16:28:38;;;;;;;28.17;21.17;;;;;;;;;;5039492;28;20500;-65
2021/11/11 16:31:04;;;;;;;32.47;23.67;;;;;;;;;;5036635;28;20433;-68
2021/11/11 16:33:30;;;;;;;29.40;21.07;;;;;;;;;;5041531;28;20422;-67
2021/11/11 16:35:58;;;;;;;32.60;22.80;;;;;;;;;;5038973;28;20425;-67
2021/11/11 16:38:24;;;;;;;36.57;23.33;;;;;;;;;;5040874;28;20432;-67
2021/11/11 16:40:51;;;;;;;33.80;25.20;;;;;;;;;;5045060;28;20440;-71
2021/11/11 16:43:17;;;;;;;28.60;21.13;;;;;;;;;;5044925;28;20459;-69
2021/11/11 16:45:44;;;;;;;30.53;22.60;;;;;;;;;;5054380;28;21126;-64
2021/11/11 16:48:10;;;;;;;29.13;22.58;;;;;;;;;;5054208;28;20416;-67
2021/11/11 16:50:38;;;;;;;27.40;21.90;;;;;;;;;;5051183;28;20720;-66
2021/11/11 16:53:04;;;;;;;26.40;21.60;;;;;;;;;;5048330;28;20824;-69
2021/11/11 16:55:30;;;;;;;43.83;22.93;;;;;;;;;;5053080;28;20465;-69
2021/11/11 16:57:57;;;;;;;29.90;23.00;;;;;;;;;;5052596;28;20774;-68
2021/11/11 17:00:24;;;;;;;34.53;24.60;;;;;;;;;;5053881;28;20433;-68
2021/11/11 17:02:50;;;;;;;38.23;27.33;;;;;;;;;;5054756;28;20938;-70
2021/11/11 17:05:21;;;;;;;37.23;26.43;;;;;;;;;;5053675;28;20464;-71
2021/11/11 17:07:49;;;;;;;39.47;25.80;;;;;;;;;;5052752;28;21047;-68
2021/11/11 17:10:15;;;;;;;38.43;25.57;;;;;;;;;;5052741;28;20468;-69
2021/11/11 17:12:41;;;;;;;46.00;30.67;;;;;;;;;;5050474;28;20417;-66
2021/11/11 17:15:09;;;;;;;40.20;27.97;;;;;;;;;;5048608;28;20428;-67
2021/11/11 17:17:35;;;;;;;41.90;28.57;;;;;;;;;;5049861;28;20425;-66
2021/11/11 17:20:02;;;;;;;49.53;31.10;;;;;;;;;;5054099;28;20425;-70
2021/11/11 17:22:36;;;;;;;46.40;30.93;;;;;;;;;;5051490;28;20457;-68
2021/11/11 17:25:25;;;;;;;44.07;32.83;;;;;;;;;;5050425;28;20432;-71
2021/11/11 17:27:57;;;;;;;51.23;32.73;;;;;;;;;;5047319;28;20476;-67
2021/11/11 17:30:23;;;;;;;51.13;32.23;;;;;;;;;;5052439;28;20504;-67
2021/11/11 17:32:49;;;;;;;55.33;35.20;;;;;;;;;;5050424;28;20441;-67
2021/11/11 17:35:16;;;;;;;54.73;34.27;;;;;;;;;;5058270;28;20498;-69
2021/11/11 17:37:42;;;;;;;55.00;33.70;;;;;;;;;;5053471;28;20491;-70
2021/11/11 17:40:08;;;;;;;57.23;34.87;;;;;;;;;;5053622;28;20420;-68
2021/11/11 17:42:35;;;;;;;54.00;36.10;;;;;;;;;;5050810;28;20943;-67
2021/11/11 17:45:02;;;;;;;53.67;34.17;;;;;;;;;;5036170;28;20406;-67
2021/11/11 17:47:35;;;;;;;62.37;37.10;;;;;;;;;;5048041;28;20453;-67
2021/11/11 17:50:04;;;;;;;57.20;36.17;;;;;;;;;;5050726;28;20409;-66
2021/11/11 17:52:31;;;;;;;55.43;35.03;;;;;;;;;;5052541;28;20520;-66
2021/11/11 17:55:01;;;;;;;58.37;38.00;;;;;;;;;;5047716;28;20420;-67
2021/11/11 17:57:31;;;;;;;58.90;38.67;;;;;;;;;;5052144;28;20475;-65
2021/11/11 17:59:57;;;;;;;60.57;38.27;;;;;;;;;;5048720;28;20414;-64
2021/11/11 18:02:27;;;;;;;59.27;35.83;;;;;;;;;;5050663;28;20451;-66
2021/11/11 18:04:56;;;;;;;57.87;36.67;;;;;;;;;;5051351;28;20418;-66
2021/11/11 18:07:26;;;;;;;62.53;38.20;;;;;;;;;;5046730;28;20446;-65
2021/11/11 18:10:00;;;;;;;58.40;36.37;;;;;;;;;;5050448;28;20777;-66
2021/11/11 18:12:33;;;;;;;62.60;36.30;;;;;;;;;;5049817;28;20443;-66